sensor_id;sensor_type;location;lat;lon;timestamp;temperature;humidity
46231;DHT22;31949;51.404;-0.038;2023-05-10T00:01:14;12.30;99.90
46231;DHT22;31949;51.404;-0.038;2023-05-10T00:03:42;12.30;99.90
46231;DHT22;31949;51.404;-0.038;2023-05-10T00:06:09;12.30;99.90
46231;DHT22;31949;51.404;-0.038;2023-05-10T00:08:36;12.30;99.90
46231;DHT22;31949;51.404;-0.038;2023-05-10T00:11:04;12.30;99.90
46231;DHT22;31949;51.404;-0.038;2023-05-10T00:13:31;12.30;99.90
46231;DHT22;31949;51.404;-0.038;2023-05-10T00:15:59;12.30;99.90
46231;DHT22;31949;51.404;-0.038;2023-05-10T00:18:26;12.30;99.90
46231;DHT22;31949;51.404;-0.038;2023-05-10T00:20:53;12.30;99.90
46231;DHT22;31949;51.404;-0.038;2023-05-10T00:23:20;12.30;99.90
46231;DHT22;31949;51.404;-0.038;2023-05-10T00:25:47;12.30;99.90
46231;DHT22;31949;51.404;-0.038;2023-05-10T00:28:15;12.30;99.90
46231;DHT22;31949;51.404;-0.038;2023-05-10T00:30:42;12.30;99.90
46231;DHT22;31949;51.404;-0.038;2023-05-10T00:33:09;12.30;99.90
46231;DHT22;31949;51.404;-0.038;2023-05-10T00:35:36;12.30;99.90
46231;DHT22;31949;51.404;-0.038;2023-05-10T00:38:04;12.30;99.90
46231;DHT22;31949;51.404;-0.038;2023-05-10T00:40:32;12.30;99.90
46231;DHT22;31949;51.404;-0.038;2023-05-10T00:43:03;12.40;99.90
46231;DHT22;31949;51.404;-0.038;2023-05-10T00:45:32;12.40;99.90
46231;DHT22;31949;51.404;-0.038;2023-05-10T00:48:02;12.30;99.90
46231;DHT22;31949;51.404;-0.038;2023-05-10T00:50:31;12.30;99.90
46231;DHT22;31949;51.404;-0.038;2023-05-10T00:53:00;12.30;99.90
46231;DHT22;31949;51.404;-0.038;2023-05-10T00:55:27;12.40;99.90
46231;DHT22;31949;51.404;-0.038;2023-05-10T00:57:55;12.40;99.90
46231;DHT22;31949;51.404;-0.038;2023-05-10T01:00:23;12.50;99.90
46231;DHT22;31949;51.404;-0.038;2023-05-10T01:02:50;12.50;99.90
46231;DHT22;31949;51.404;-0.038;2023-05-10T01:05:17;12.50;99.90
46231;DHT22;31949;51.404;-0.038;2023-05-10T01:07:45;12.50;99.90
46231;DHT22;31949;51.404;-0.038;2023-05-10T01:10:12;12.50;99.90
46231;DHT22;31949;51.404;-0.038;2023-05-10T01:12:43;12.40;99.90
46231;DHT22;31949;51.404;-0.038;2023-05-10T01:15:12;12.40;99.90
46231;DHT22;31949;51.404;-0.038;2023-05-10T01:17:43;12.50;99.90
46231;DHT22;31949;51.404;-0.038;2023-05-10T01:20:12;12.50;99.90
46231;DHT22;31949;51.404;-0.038;2023-05-10T01:34:16;12.40;99.90
46231;DHT22;31949;51.404;-0.038;2023-05-10T01:36:55;12.40;99.90
46231;DHT22;31949;51.404;-0.038;2023-05-10T01:39:45;12.50;99.90
46231;DHT22;31949;51.404;-0.038;2023-05-10T01:42:17;12.40;99.90
46231;DHT22;31949;51.404;-0.038;2023-05-10T01:45:00;12.40;99.90
46231;DHT22;31949;51.404;-0.038;2023-05-10T01:47:52;12.40;99.90
46231;DHT22;31949;51.404;-0.038;2023-05-10T01:50:26;12.40;99.90
46231;DHT22;31949;51.404;-0.038;2023-05-10T01:52:58;12.40;99.90
46231;DHT22;31949;51.404;-0.038;2023-05-10T01:55:32;12.40;99.90
46231;DHT22;31949;51.404;-0.038;2023-05-10T01:58:04;12.40;99.90
46231;DHT22;31949;51.404;-0.038;2023-05-10T02:00:34;12.40;99.90
46231;DHT22;31949;51.404;-0.038;2023-05-10T02:03:05;12.40;99.90
46231;DHT22;31949;51.404;-0.038;2023-05-10T02:05:34;12.40;99.90
46231;DHT22;31949;51.404;-0.038;2023-05-10T02:08:03;12.40;99.90
46231;DHT22;31949;51.404;-0.038;2023-05-10T02:10:34;12.30;99.90
46231;DHT22;31949;51.404;-0.038;2023-05-10T02:13:02;12.30;99.90
46231;DHT22;31949;51.404;-0.038;2023-05-10T02:15:31;12.30;99.90
46231;DHT22;31949;51.404;-0.038;2023-05-10T02:18:00;12.30;99.90
46231;DHT22;31949;51.404;-0.038;2023-05-10T02:20:31;12.30;99.90
46231;DHT22;31949;51.404;-0.038;2023-05-10T02:23:00;12.20;99.90
46231;DHT22;31949;51.404;-0.038;2023-05-10T02:25:29;12.20;99.90
46231;DHT22;31949;51.404;-0.038;2023-05-10T02:28:01;12.20;99.90
46231;DHT22;31949;51.404;-0.038;2023-05-10T02:30:29;12.20;99.90
46231;DHT22;31949;51.404;-0.038;2023-05-10T02:32:58;12.20;99.90
46231;DHT22;31949;51.404;-0.038;2023-05-10T02:35:27;12.20;99.90
46231;DHT22;31949;51.404;-0.038;2023-05-10T02:37:56;12.20;99.90
46231;DHT22;31949;51.404;-0.038;2023-05-10T02:40:25;12.20;99.90
46231;DHT22;31949;51.404;-0.038;2023-05-10T02:42:57;12.20;99.90
46231;DHT22;31949;51.404;-0.038;2023-05-10T02:45:29;12.20;99.90
46231;DHT22;31949;51.404;-0.038;2023-05-10T02:47:57;12.10;99.90
46231;DHT22;31949;51.404;-0.038;2023-05-10T02:50:27;12.20;99.90
46231;DHT22;31949;51.404;-0.038;2023-05-10T02:53:00;12.20;99.90
46231;DHT22;31949;51.404;-0.038;2023-05-10T02:55:35;12.20;99.90
46231;DHT22;31949;51.404;-0.038;2023-05-10T02:58:03;12.20;99.90
46231;DHT22;31949;51.404;-0.038;2023-05-10T03:00:31;12.20;99.90
46231;DHT22;31949;51.404;-0.038;2023-05-10T03:02:58;12.20;99.90
46231;DHT22;31949;51.404;-0.038;2023-05-10T03:05:27;12.10;99.90
46231;DHT22;31949;51.404;-0.038;2023-05-10T03:07:55;12.10;99.90
46231;DHT22;31949;51.404;-0.038;2023-05-10T03:10:29;12.10;99.90
46231;DHT22;31949;51.404;-0.038;2023-05-10T03:15:55;12.10;99.90
46231;DHT22;31949;51.404;-0.038;2023-05-10T03:21:12;12.00;99.90
46231;DHT22;31949;51.404;-0.038;2023-05-10T03:23:44;12.00;99.90
46231;DHT22;31949;51.404;-0.038;2023-05-10T03:26:32;12.00;99.90
46231;DHT22;31949;51.404;-0.038;2023-05-10T03:29:07;12.00;99.90
46231;DHT22;31949;51.404;-0.038;2023-05-10T03:31:35;12.00;99.90
46231;DHT22;31949;51.404;-0.038;2023-05-10T03:34:03;11.90;99.90
46231;DHT22;31949;51.404;-0.038;2023-05-10T03:36:30;11.90;99.90
46231;DHT22;31949;51.404;-0.038;2023-05-10T03:38:58;11.90;99.90
46231;DHT22;31949;51.404;-0.038;2023-05-10T03:41:25;11.90;99.90
46231;DHT22;31949;51.404;-0.038;2023-05-10T03:43:53;11.90;99.90
46231;DHT22;31949;51.404;-0.038;2023-05-10T03:46:20;11.90;99.90
46231;DHT22;31949;51.404;-0.038;2023-05-10T03:48:48;11.90;99.90
46231;DHT22;31949;51.404;-0.038;2023-05-10T03:51:15;11.90;99.90
46231;DHT22;31949;51.404;-0.038;2023-05-10T03:53:43;11.90;99.90
46231;DHT22;31949;51.404;-0.038;2023-05-10T03:56:10;11.90;99.90
46231;DHT22;31949;51.404;-0.038;2023-05-10T03:58:37;11.90;99.90
46231;DHT22;31949;51.404;-0.038;2023-05-10T04:01:04;11.80;99.90
46231;DHT22;31949;51.404;-0.038;2023-05-10T04:03:31;11.90;99.90
46231;DHT22;31949;51.404;-0.038;2023-05-10T04:06:00;11.80;99.90
46231;DHT22;31949;51.404;-0.038;2023-05-10T04:08:28;11.80;99.90
46231;DHT22;31949;51.404;-0.038;2023-05-10T04:11:07;11.80;99.90
46231;DHT22;31949;51.404;-0.038;2023-05-10T04:13:35;11.70;99.90
46231;DHT22;31949;51.404;-0.038;2023-05-10T04:16:02;11.70;99.90
46231;DHT22;31949;51.404;-0.038;2023-05-10T04:18:30;11.70;99.90
46231;DHT22;31949;51.404;-0.038;2023-05-10T04:20:59;11.70;99.90
46231;DHT22;31949;51.404;-0.038;2023-05-10T04:23:27;11.60;99.90
46231;DHT22;31949;51.404;-0.038;2023-05-10T04:26:01;11.60;99.90
46231;DHT22;31949;51.404;-0.038;2023-05-10T04:28:28;11.60;99.90
46231;DHT22;31949;51.404;-0.038;2023-05-10T04:31:06;11.50;99.90
46231;DHT22;31949;51.404;-0.038;2023-05-10T04:33:36;11.50;99.90
46231;DHT22;31949;51.404;-0.038;2023-05-10T04:36:04;11.50;99.90
46231;DHT22;31949;51.404;-0.038;2023-05-10T04:38:31;11.50;99.90
46231;DHT22;31949;51.404;-0.038;2023-05-10T04:41:09;11.50;99.90
46231;DHT22;31949;51.404;-0.038;2023-05-10T04:43:37;11.60;99.90
46231;DHT22;31949;51.404;-0.038;2023-05-10T04:46:07;11.50;99.90
46231;DHT22;31949;51.404;-0.038;2023-05-10T04:48:35;11.50;99.90
46231;DHT22;31949;51.404;-0.038;2023-05-10T04:51:02;11.50;99.90
46231;DHT22;31949;51.404;-0.038;2023-05-10T04:53:31;11.40;99.90
46231;DHT22;31949;51.404;-0.038;2023-05-10T04:55:58;11.40;99.90
46231;DHT22;31949;51.404;-0.038;2023-05-10T04:58:25;11.40;99.90
46231;DHT22;31949;51.404;-0.038;2023-05-10T05:00:52;11.40;99.90
46231;DHT22;31949;51.404;-0.038;2023-05-10T05:03:19;11.40;99.90
46231;DHT22;31949;51.404;-0.038;2023-05-10T05:05:47;11.30;99.90
46231;DHT22;31949;51.404;-0.038;2023-05-10T05:08:14;11.30;99.90
46231;DHT22;31949;51.404;-0.038;2023-05-10T05:10:42;11.30;99.90
46231;DHT22;31949;51.404;-0.038;2023-05-10T05:13:12;11.30;99.90
46231;DHT22;31949;51.404;-0.038;2023-05-10T05:15:39;11.30;99.90
46231;DHT22;31949;51.404;-0.038;2023-05-10T05:18:06;11.30;99.90
46231;DHT22;31949;51.404;-0.038;2023-05-10T05:20:34;11.30;99.90
46231;DHT22;31949;51.404;-0.038;2023-05-10T05:23:01;11.30;99.90
46231;DHT22;31949;51.404;-0.038;2023-05-10T05:25:28;11.40;99.90
46231;DHT22;31949;51.404;-0.038;2023-05-10T05:27:56;11.50;99.90
46231;DHT22;31949;51.404;-0.038;2023-05-10T05:30:23;11.60;99.90
46231;DHT22;31949;51.404;-0.038;2023-05-10T05:32:50;11.50;99.90
46231;DHT22;31949;51.404;-0.038;2023-05-10T05:35:18;11.60;99.90
46231;DHT22;31949;51.404;-0.038;2023-05-10T05:37:45;11.60;99.90
46231;DHT22;31949;51.404;-0.038;2023-05-10T05:40:13;11.60;99.90
46231;DHT22;31949;51.404;-0.038;2023-05-10T05:42:41;11.60;99.90
46231;DHT22;31949;51.404;-0.038;2023-05-10T05:45:09;11.70;99.90
46231;DHT22;31949;51.404;-0.038;2023-05-10T05:47:40;11.70;99.90
46231;DHT22;31949;51.404;-0.038;2023-05-10T05:50:08;11.70;99.90
46231;DHT22;31949;51.404;-0.038;2023-05-10T05:52:36;11.70;99.90
46231;DHT22;31949;51.404;-0.038;2023-05-10T05:55:05;11.70;99.90
46231;DHT22;31949;51.404;-0.038;2023-05-10T05:57:33;11.80;99.90
46231;DHT22;31949;51.404;-0.038;2023-05-10T06:00:00;11.80;99.90
46231;DHT22;31949;51.404;-0.038;2023-05-10T06:02:38;11.80;99.90
46231;DHT22;31949;51.404;-0.038;2023-05-10T06:05:06;11.70;99.90
46231;DHT22;31949;51.404;-0.038;2023-05-10T06:07:33;11.70;99.90
46231;DHT22;31949;51.404;-0.038;2023-05-10T06:10:01;11.70;99.90
46231;DHT22;31949;51.404;-0.038;2023-05-10T06:12:28;11.70;99.90
46231;DHT22;31949;51.404;-0.038;2023-05-10T06:14:55;11.80;99.90
46231;DHT22;31949;51.404;-0.038;2023-05-10T06:17:22;11.80;99.90
46231;DHT22;31949;51.404;-0.038;2023-05-10T06:19:50;11.80;99.90
46231;DHT22;31949;51.404;-0.038;2023-05-10T06:22:18;11.80;99.90
46231;DHT22;31949;51.404;-0.038;2023-05-10T06:24:45;11.90;99.90
46231;DHT22;31949;51.404;-0.038;2023-05-10T06:27:13;11.90;99.90
46231;DHT22;31949;51.404;-0.038;2023-05-10T06:29:40;11.90;99.90
46231;DHT22;31949;51.404;-0.038;2023-05-10T06:32:07;11.90;99.90
46231;DHT22;31949;51.404;-0.038;2023-05-10T06:34:34;12.00;99.90
46231;DHT22;31949;51.404;-0.038;2023-05-10T06:37:02;12.00;99.90
46231;DHT22;31949;51.404;-0.038;2023-05-10T06:39:30;12.00;99.90
46231;DHT22;31949;51.404;-0.038;2023-05-10T06:41:57;12.00;99.90
46231;DHT22;31949;51.404;-0.038;2023-05-10T06:44:31;12.10;99.90
46231;DHT22;31949;51.404;-0.038;2023-05-10T06:46:58;12.20;99.90
46231;DHT22;31949;51.404;-0.038;2023-05-10T06:49:25;12.30;99.90
46231;DHT22;31949;51.404;-0.038;2023-05-10T06:51:53;12.20;99.90
46231;DHT22;31949;51.404;-0.038;2023-05-10T06:54:20;12.20;99.90
46231;DHT22;31949;51.404;-0.038;2023-05-10T06:56:47;12.10;99.90
46231;DHT22;31949;51.404;-0.038;2023-05-10T06:59:14;12.20;99.90
46231;DHT22;31949;51.404;-0.038;2023-05-10T07:01:43;12.40;99.90
46231;DHT22;31949;51.404;-0.038;2023-05-10T07:04:10;12.50;99.90
46231;DHT22;31949;51.404;-0.038;2023-05-10T07:06:37;12.60;99.90
46231;DHT22;31949;51.404;-0.038;2023-05-10T07:09:05;12.70;99.90
46231;DHT22;31949;51.404;-0.038;2023-05-10T07:11:32;12.70;99.90
46231;DHT22;31949;51.404;-0.038;2023-05-10T07:13:59;12.70;99.90
46231;DHT22;31949;51.404;-0.038;2023-05-10T07:16:26;12.80;99.90
46231;DHT22;31949;51.404;-0.038;2023-05-10T07:18:54;12.80;99.90
46231;DHT22;31949;51.404;-0.038;2023-05-10T07:21:21;12.90;99.90
46231;DHT22;31949;51.404;-0.038;2023-05-10T07:23:51;13.10;99.90
46231;DHT22;31949;51.404;-0.038;2023-05-10T07:26:18;13.30;99.90
46231;DHT22;31949;51.404;-0.038;2023-05-10T07:28:46;13.50;99.90
46231;DHT22;31949;51.404;-0.038;2023-05-10T07:31:13;13.60;99.90
46231;DHT22;31949;51.404;-0.038;2023-05-10T07:33:41;13.90;99.90
46231;DHT22;31949;51.404;-0.038;2023-05-10T07:36:08;14.10;99.90
46231;DHT22;31949;51.404;-0.038;2023-05-10T07:38:35;14.30;99.90
46231;DHT22;31949;51.404;-0.038;2023-05-10T07:41:05;14.30;99.90
46231;DHT22;31949;51.404;-0.038;2023-05-10T07:43:32;14.50;99.90
46231;DHT22;31949;51.404;-0.038;2023-05-10T07:45:59;14.50;99.90
46231;DHT22;31949;51.404;-0.038;2023-05-10T07:48:27;14.70;99.90
46231;DHT22;31949;51.404;-0.038;2023-05-10T07:50:54;14.60;99.90
46231;DHT22;31949;51.404;-0.038;2023-05-10T07:53:21;14.60;99.90
46231;DHT22;31949;51.404;-0.038;2023-05-10T07:55:53;14.60;99.90
46231;DHT22;31949;51.404;-0.038;2023-05-10T07:58:21;14.70;99.90
46231;DHT22;31949;51.404;-0.038;2023-05-10T08:00:48;14.80;99.90
46231;DHT22;31949;51.404;-0.038;2023-05-10T08:03:16;14.90;99.90
46231;DHT22;31949;51.404;-0.038;2023-05-10T08:05:43;14.90;99.90
46231;DHT22;31949;51.404;-0.038;2023-05-10T08:08:12;15.00;99.90
46231;DHT22;31949;51.404;-0.038;2023-05-10T08:10:39;15.00;99.90
46231;DHT22;31949;51.404;-0.038;2023-05-10T08:13:06;15.10;99.90
46231;DHT22;31949;51.404;-0.038;2023-05-10T08:15:33;15.20;99.90
46231;DHT22;31949;51.404;-0.038;2023-05-10T08:18:00;15.30;99.90
46231;DHT22;31949;51.404;-0.038;2023-05-10T08:20:27;15.40;99.90
46231;DHT22;31949;51.404;-0.038;2023-05-10T08:22:55;15.30;99.90
46231;DHT22;31949;51.404;-0.038;2023-05-10T08:25:22;15.30;99.90
46231;DHT22;31949;51.404;-0.038;2023-05-10T08:27:49;15.40;99.90
46231;DHT22;31949;51.404;-0.038;2023-05-10T08:30:16;15.50;99.90
46231;DHT22;31949;51.404;-0.038;2023-05-10T08:32:44;15.50;99.90
46231;DHT22;31949;51.404;-0.038;2023-05-10T08:35:11;15.50;99.90
46231;DHT22;31949;51.404;-0.038;2023-05-10T08:37:38;15.30;99.90
46231;DHT22;31949;51.404;-0.038;2023-05-10T08:40:06;15.40;99.90
46231;DHT22;31949;51.404;-0.038;2023-05-10T08:42:35;15.50;99.90
46231;DHT22;31949;51.404;-0.038;2023-05-10T08:45:05;15.50;99.90
46231;DHT22;31949;51.404;-0.038;2023-05-10T08:47:36;15.60;99.90
46231;DHT22;31949;51.404;-0.038;2023-05-10T08:50:05;15.80;99.90
46231;DHT22;31949;51.404;-0.038;2023-05-10T08:52:37;15.80;99.90
46231;DHT22;31949;51.404;-0.038;2023-05-10T08:55:05;15.90;99.90
46231;DHT22;31949;51.404;-0.038;2023-05-10T08:57:33;15.90;99.90
46231;DHT22;31949;51.404;-0.038;2023-05-10T09:00:01;15.90;99.90
46231;DHT22;31949;51.404;-0.038;2023-05-10T09:02:30;15.90;99.90
46231;DHT22;31949;51.404;-0.038;2023-05-10T09:04:58;16.00;99.90
46231;DHT22;31949;51.404;-0.038;2023-05-10T09:07:25;16.00;99.90
46231;DHT22;31949;51.404;-0.038;2023-05-10T09:09:53;16.00;99.90
46231;DHT22;31949;51.404;-0.038;2023-05-10T09:12:22;16.10;99.90
46231;DHT22;31949;51.404;-0.038;2023-05-10T09:14:51;16.20;99.90
46231;DHT22;31949;51.404;-0.038;2023-05-10T09:17:19;16.40;99.90
46231;DHT22;31949;51.404;-0.038;2023-05-10T09:19:47;16.50;99.90
46231;DHT22;31949;51.404;-0.038;2023-05-10T09:22:14;16.60;99.90
46231;DHT22;31949;51.404;-0.038;2023-05-10T09:24:42;16.50;99.90
46231;DHT22;31949;51.404;-0.038;2023-05-10T09:27:12;16.50;99.90
46231;DHT22;31949;51.404;-0.038;2023-05-10T09:29:42;16.50;99.90
46231;DHT22;31949;51.404;-0.038;2023-05-10T09:32:09;16.40;99.90
46231;DHT22;31949;51.404;-0.038;2023-05-10T09:34:37;16.50;99.90
46231;DHT22;31949;51.404;-0.038;2023-05-10T09:37:07;16.60;99.90
46231;DHT22;31949;51.404;-0.038;2023-05-10T09:39:36;16.80;99.90
46231;DHT22;31949;51.404;-0.038;2023-05-10T09:42:09;16.80;99.90
46231;DHT22;31949;51.404;-0.038;2023-05-10T09:44:37;16.90;99.90
46231;DHT22;31949;51.404;-0.038;2023-05-10T09:47:05;16.90;99.90
46231;DHT22;31949;51.404;-0.038;2023-05-10T09:49:32;16.90;99.90
46231;DHT22;31949;51.404;-0.038;2023-05-10T09:52:05;17.00;99.90
46231;DHT22;31949;51.404;-0.038;2023-05-10T09:54:33;17.10;99.90
46231;DHT22;31949;51.404;-0.038;2023-05-10T09:57:01;17.20;99.90
46231;DHT22;31949;51.404;-0.038;2023-05-10T09:59:29;17.30;99.90
46231;DHT22;31949;51.404;-0.038;2023-05-10T10:01:58;17.20;99.90
46231;DHT22;31949;51.404;-0.038;2023-05-10T10:04:28;17.30;99.90
46231;DHT22;31949;51.404;-0.038;2023-05-10T10:07:03;17.20;99.90
46231;DHT22;31949;51.404;-0.038;2023-05-10T10:09:31;17.30;99.90
46231;DHT22;31949;51.404;-0.038;2023-05-10T10:12:03;17.40;99.90
46231;DHT22;31949;51.404;-0.038;2023-05-10T10:14:31;17.40;99.90
46231;DHT22;31949;51.404;-0.038;2023-05-10T10:17:00;17.50;99.90
46231;DHT22;31949;51.404;-0.038;2023-05-10T10:19:33;17.60;99.90
46231;DHT22;31949;51.404;-0.038;2023-05-10T10:22:00;17.50;99.90
46231;DHT22;31949;51.404;-0.038;2023-05-10T10:24:27;17.50;99.90
46231;DHT22;31949;51.404;-0.038;2023-05-10T10:26:59;17.70;99.90
46231;DHT22;31949;51.404;-0.038;2023-05-10T10:30:06;17.90;99.90
46231;DHT22;31949;51.404;-0.038;2023-05-10T10:35:46;18.00;99.90
46231;DHT22;31949;51.404;-0.038;2023-05-10T10:38:13;18.20;99.90
46231;DHT22;31949;51.404;-0.038;2023-05-10T10:40:41;18.30;99.90
46231;DHT22;31949;51.404;-0.038;2023-05-10T10:43:24;18.10;99.90
46231;DHT22;31949;51.404;-0.038;2023-05-10T10:46:10;18.10;99.90
46231;DHT22;31949;51.404;-0.038;2023-05-10T10:48:46;18.20;99.90
46231;DHT22;31949;51.404;-0.038;2023-05-10T10:51:14;18.30;99.90
46231;DHT22;31949;51.404;-0.038;2023-05-10T10:53:43;18.10;99.90
46231;DHT22;31949;51.404;-0.038;2023-05-10T10:56:12;18.00;99.90
46231;DHT22;31949;51.404;-0.038;2023-05-10T10:58:41;18.00;99.90
46231;DHT22;31949;51.404;-0.038;2023-05-10T11:01:15;18.00;99.90
46231;DHT22;31949;51.404;-0.038;2023-05-10T11:06:42;18.30;99.90
46231;DHT22;31949;51.404;-0.038;2023-05-10T11:09:11;18.40;99.90
46231;DHT22;31949;51.404;-0.038;2023-05-10T11:11:52;18.40;99.90
46231;DHT22;31949;51.404;-0.038;2023-05-10T11:14:22;18.30;99.90
46231;DHT22;31949;51.404;-0.038;2023-05-10T11:16:49;18.30;99.90
46231;DHT22;31949;51.404;-0.038;2023-05-10T11:19:19;18.30;99.90
46231;DHT22;31949;51.404;-0.038;2023-05-10T11:21:51;18.40;99.90
46231;DHT22;31949;51.404;-0.038;2023-05-10T11:24:25;18.50;99.90
46231;DHT22;31949;51.404;-0.038;2023-05-10T11:26:53;18.50;99.90
46231;DHT22;31949;51.404;-0.038;2023-05-10T11:29:21;18.50;99.90
46231;DHT22;31949;51.404;-0.038;2023-05-10T11:31:49;18.50;99.90
46231;DHT22;31949;51.404;-0.038;2023-05-10T11:34:30;18.60;99.90
46231;DHT22;31949;51.404;-0.038;2023-05-10T11:37:00;18.70;99.90
46231;DHT22;31949;51.404;-0.038;2023-05-10T11:39:31;18.80;99.90
46231;DHT22;31949;51.404;-0.038;2023-05-10T11:42:00;18.90;99.90
46231;DHT22;31949;51.404;-0.038;2023-05-10T11:44:33;19.10;99.90
46231;DHT22;31949;51.404;-0.038;2023-05-10T11:47:01;19.20;99.90
46231;DHT22;31949;51.404;-0.038;2023-05-10T11:49:29;19.30;99.90
46231;DHT22;31949;51.404;-0.038;2023-05-10T11:52:06;19.60;99.90
46231;DHT22;31949;51.404;-0.038;2023-05-10T11:54:34;19.70;99.90
46231;DHT22;31949;51.404;-0.038;2023-05-10T11:57:04;19.90;99.90
46231;DHT22;31949;51.404;-0.038;2023-05-10T11:59:31;20.10;99.90
46231;DHT22;31949;51.404;-0.038;2023-05-10T12:01:59;20.30;99.90
46231;DHT22;31949;51.404;-0.038;2023-05-10T12:04:26;20.10;99.90
46231;DHT22;31949;51.404;-0.038;2023-05-10T12:06:57;20.10;99.90
46231;DHT22;31949;51.404;-0.038;2023-05-10T12:09:24;20.20;99.90
46231;DHT22;31949;51.404;-0.038;2023-05-10T12:12:08;20.20;99.90
46231;DHT22;31949;51.404;-0.038;2023-05-10T12:14:36;20.10;99.90
46231;DHT22;31949;51.404;-0.038;2023-05-10T12:17:03;19.90;99.90
46231;DHT22;31949;51.404;-0.038;2023-05-10T12:19:38;19.80;99.90
46231;DHT22;31949;51.404;-0.038;2023-05-10T12:22:06;19.60;99.90
46231;DHT22;31949;51.404;-0.038;2023-05-10T12:24:37;19.60;99.90
46231;DHT22;31949;51.404;-0.038;2023-05-10T12:27:05;19.60;99.90
46231;DHT22;31949;51.404;-0.038;2023-05-10T12:29:35;19.50;99.90
46231;DHT22;31949;51.404;-0.038;2023-05-10T12:32:02;19.60;99.90
46231;DHT22;31949;51.404;-0.038;2023-05-10T12:34:31;19.60;99.90
46231;DHT22;31949;51.404;-0.038;2023-05-10T12:36:58;19.60;99.90
46231;DHT22;31949;51.404;-0.038;2023-05-10T12:39:26;19.70;99.90
46231;DHT22;31949;51.404;-0.038;2023-05-10T12:41:53;19.60;99.90
46231;DHT22;31949;51.404;-0.038;2023-05-10T12:44:20;19.60;99.90
46231;DHT22;31949;51.404;-0.038;2023-05-10T12:46:48;19.50;99.90
46231;DHT22;31949;51.404;-0.038;2023-05-10T12:49:15;19.50;99.90
46231;DHT22;31949;51.404;-0.038;2023-05-10T12:51:43;19.40;99.90
46231;DHT22;31949;51.404;-0.038;2023-05-10T12:54:10;19.40;99.90
46231;DHT22;31949;51.404;-0.038;2023-05-10T12:56:37;19.30;99.90
46231;DHT22;31949;51.404;-0.038;2023-05-10T12:59:04;19.40;99.90
46231;DHT22;31949;51.404;-0.038;2023-05-10T13:01:32;19.40;99.90
46231;DHT22;31949;51.404;-0.038;2023-05-10T13:03:59;19.50;99.90
46231;DHT22;31949;51.404;-0.038;2023-05-10T13:06:27;19.50;99.90
46231;DHT22;31949;51.404;-0.038;2023-05-10T13:08:54;19.30;99.90
46231;DHT22;31949;51.404;-0.038;2023-05-10T13:11:21;19.30;99.90
46231;DHT22;31949;51.404;-0.038;2023-05-10T13:13:48;19.40;99.90
46231;DHT22;31949;51.404;-0.038;2023-05-10T13:16:15;19.40;99.90
46231;DHT22;31949;51.404;-0.038;2023-05-10T13:18:42;19.30;99.90
46231;DHT22;31949;51.404;-0.038;2023-05-10T13:21:10;19.30;99.90
46231;DHT22;31949;51.404;-0.038;2023-05-10T13:23:38;19.30;99.90
46231;DHT22;31949;51.404;-0.038;2023-05-10T13:26:05;19.30;99.90
46231;DHT22;31949;51.404;-0.038;2023-05-10T13:28:32;19.30;99.90
46231;DHT22;31949;51.404;-0.038;2023-05-10T13:31:00;19.20;99.90
46231;DHT22;31949;51.404;-0.038;2023-05-10T13:33:27;19.30;99.90
46231;DHT22;31949;51.404;-0.038;2023-05-10T13:35:54;19.30;99.90
46231;DHT22;31949;51.404;-0.038;2023-05-10T13:38:22;19.10;99.90
46231;DHT22;31949;51.404;-0.038;2023-05-10T13:40:49;19.10;99.90
46231;DHT22;31949;51.404;-0.038;2023-05-10T13:43:19;19.10;99.90
46231;DHT22;31949;51.404;-0.038;2023-05-10T13:45:46;19.00;99.90
46231;DHT22;31949;51.404;-0.038;2023-05-10T13:48:14;18.90;99.90
46231;DHT22;31949;51.404;-0.038;2023-05-10T13:50:41;18.60;99.90
46231;DHT22;31949;51.404;-0.038;2023-05-10T13:53:08;18.00;99.90
46231;DHT22;31949;51.404;-0.038;2023-05-10T13:55:35;17.70;99.90
46231;DHT22;31949;51.404;-0.038;2023-05-10T13:58:02;17.30;99.90
46231;DHT22;31949;51.404;-0.038;2023-05-10T14:00:29;17.00;99.90
46231;DHT22;31949;51.404;-0.038;2023-05-10T14:02:57;16.80;99.90
46231;DHT22;31949;51.404;-0.038;2023-05-10T14:05:24;16.70;99.90
46231;DHT22;31949;51.404;-0.038;2023-05-10T14:07:52;16.40;99.90
46231;DHT22;31949;51.404;-0.038;2023-05-10T14:10:20;16.30;99.90
46231;DHT22;31949;51.404;-0.038;2023-05-10T14:12:48;16.30;99.90
46231;DHT22;31949;51.404;-0.038;2023-05-10T14:15:15;16.30;99.90
46231;DHT22;31949;51.404;-0.038;2023-05-10T14:17:43;16.20;99.90
46231;DHT22;31949;51.404;-0.038;2023-05-10T14:20:11;16.10;99.90
46231;DHT22;31949;51.404;-0.038;2023-05-10T14:22:38;16.30;99.90
46231;DHT22;31949;51.404;-0.038;2023-05-10T14:25:05;16.40;99.90
46231;DHT22;31949;51.404;-0.038;2023-05-10T14:27:32;16.60;99.90
46231;DHT22;31949;51.404;-0.038;2023-05-10T14:29:59;16.90;99.90
46231;DHT22;31949;51.404;-0.038;2023-05-10T14:32:27;17.10;99.90
46231;DHT22;31949;51.404;-0.038;2023-05-10T14:34:54;17.40;99.90
46231;DHT22;31949;51.404;-0.038;2023-05-10T14:37:22;17.60;99.90
46231;DHT22;31949;51.404;-0.038;2023-05-10T14:39:49;17.80;99.90
46231;DHT22;31949;51.404;-0.038;2023-05-10T14:42:16;18.10;99.90
46231;DHT22;31949;51.404;-0.038;2023-05-10T14:44:43;18.20;99.90
46231;DHT22;31949;51.404;-0.038;2023-05-10T14:47:11;18.30;99.90
46231;DHT22;31949;51.404;-0.038;2023-05-10T14:49:38;18.50;99.90
46231;DHT22;31949;51.404;-0.038;2023-05-10T14:52:05;18.60;99.90
46231;DHT22;31949;51.404;-0.038;2023-05-10T14:54:33;18.70;99.90
46231;DHT22;31949;51.404;-0.038;2023-05-10T14:57:00;18.80;99.90
46231;DHT22;31949;51.404;-0.038;2023-05-10T14:59:27;18.90;99.90
46231;DHT22;31949;51.404;-0.038;2023-05-10T15:01:55;19.00;99.90
46231;DHT22;31949;51.404;-0.038;2023-05-10T15:04:22;19.00;99.90
46231;DHT22;31949;51.404;-0.038;2023-05-10T15:06:51;18.90;99.90
46231;DHT22;31949;51.404;-0.038;2023-05-10T15:09:19;18.70;99.90
46231;DHT22;31949;51.404;-0.038;2023-05-10T15:11:46;18.50;99.90
46231;DHT22;31949;51.404;-0.038;2023-05-10T15:14:13;18.60;99.90
46231;DHT22;31949;51.404;-0.038;2023-05-10T15:16:40;18.50;99.90
46231;DHT22;31949;51.404;-0.038;2023-05-10T15:19:07;18.20;99.90
46231;DHT22;31949;51.404;-0.038;2023-05-10T15:21:35;17.90;99.90
46231;DHT22;31949;51.404;-0.038;2023-05-10T15:24:05;17.60;99.90
46231;DHT22;31949;51.404;-0.038;2023-05-10T15:26:33;17.40;99.90
46231;DHT22;31949;51.404;-0.038;2023-05-10T15:29:00;17.50;99.90
46231;DHT22;31949;51.404;-0.038;2023-05-10T15:31:28;17.70;99.90
46231;DHT22;31949;51.404;-0.038;2023-05-10T15:33:58;17.90;99.90
46231;DHT22;31949;51.404;-0.038;2023-05-10T15:36:28;17.90;99.90
46231;DHT22;31949;51.404;-0.038;2023-05-10T15:38:56;18.10;99.90
46231;DHT22;31949;51.404;-0.038;2023-05-10T15:41:23;18.20;99.90
46231;DHT22;31949;51.404;-0.038;2023-05-10T15:43:51;18.20;99.90
46231;DHT22;31949;51.404;-0.038;2023-05-10T15:46:18;18.20;99.90
46231;DHT22;31949;51.404;-0.038;2023-05-10T15:48:49;18.20;99.90